createdAt,value
2022-12-17T00:02:27.769Z,16.95
2022-12-17T00:05:13.678Z,18.80
2022-12-17T00:08:01.108Z,20.17
2022-12-17T00:10:46.873Z,20.25
2022-12-17T00:13:40.603Z,19.17
2022-12-17T00:16:26.862Z,20.92
2022-12-17T00:19:12.711Z,18.23
2022-12-17T00:21:58.369Z,14.98
2022-12-17T00:24:45.441Z,16.00
2022-12-17T00:27:31.074Z,18.25
2022-12-17T00:30:16.612Z,18.25
2022-12-17T00:32:59.927Z,19.75
2022-12-17T00:35:45.341Z,18.25
2022-12-17T00:38:35.128Z,18.08
2022-12-17T00:41:23.070Z,13.35
2022-12-17T00:44:08.542Z,16.45
2022-12-17T00:46:54.950Z,15.27
2022-12-17T00:49:44.122Z,13.43
2022-12-17T00:52:29.588Z,20.17
2022-12-17T00:55:14.999Z,19.85
2022-12-17T00:58:02.057Z,13.60
2022-12-17T01:00:47.664Z,12.20
2022-12-17T01:03:34.323Z,14.45
2022-12-17T01:06:23.041Z,10.30
2022-12-17T01:09:08.462Z,7.68
2022-12-17T01:11:56.657Z,6.82
2022-12-17T01:14:44.855Z,8.10
2022-12-17T01:17:31.122Z,7.95
2022-12-17T01:20:16.872Z,6.65
2022-12-17T01:23:04.570Z,8.07
2022-12-17T01:25:50.080Z,10.13
2022-12-17T01:28:41.328Z,10.05
2022-12-17T01:31:33.125Z,11.27
2022-12-17T01:34:20.909Z,7.13
2022-12-17T01:37:06.482Z,7.28
2022-12-17T01:39:52.066Z,10.32
2022-12-17T01:42:37.966Z,8.13
2022-12-17T01:45:28.927Z,9.55
2022-12-17T01:48:21.771Z,5.07
2022-12-17T01:51:12.357Z,4.82
2022-12-17T01:54:05.148Z,6.07
2022-12-17T01:56:51.645Z,5.38
2022-12-17T01:59:45.718Z,6.70
2022-12-17T02:02:31.648Z,8.57
2022-12-17T02:05:19.072Z,6.35
2022-12-17T02:08:27.363Z,5.93
2022-12-17T02:11:22.155Z,7.57
2022-12-17T02:14:36.707Z,11.38
2022-12-17T02:17:32.041Z,11.90
2022-12-17T02:20:41.656Z,12.02
2022-12-17T02:23:47.794Z,11.77
2022-12-17T02:26:48.043Z,10.70
2022-12-17T02:29:32.965Z,15.95
2022-12-17T02:32:21.296Z,14.68
2022-12-17T02:35:07.833Z,17.20
2022-12-17T02:37:54.975Z,14.63
2022-12-17T02:40:43.186Z,13.20
2022-12-17T02:43:45.585Z,16.05
2022-12-17T02:46:33.032Z,13.80
2022-12-17T02:49:18.671Z,11.07
2022-12-17T02:52:06.812Z,13.02
2022-12-17T02:55:05.155Z,11.70
2022-12-17T02:57:54.065Z,12.38
2022-12-17T03:00:42.399Z,13.98
2022-12-17T03:03:28.431Z,11.63
2022-12-17T03:06:14.362Z,11.90
2022-12-17T03:09:01.642Z,13.20
2022-12-17T03:12:02.928Z,14.20
2022-12-17T03:14:48.542Z,13.27
2022-12-17T03:17:35.169Z,12.18
2022-12-17T03:20:20.673Z,14.73
2022-12-17T03:23:06.290Z,16.15
2022-12-17T03:25:51.852Z,14.35
2022-12-17T03:28:37.392Z,13.43
2022-12-17T03:31:23.101Z,15.30
2022-12-17T03:34:10.336Z,14.77
2022-12-17T03:36:56.007Z,12.77
2022-12-17T03:39:41.582Z,12.77
2022-12-17T03:42:27.382Z,12.82
2022-12-17T03:45:13.111Z,11.98
2022-12-17T03:47:58.575Z,11.73
2022-12-17T03:50:45.692Z,16.40
2022-12-17T03:53:31.492Z,13.48
2022-12-17T03:56:19.190Z,14.23
2022-12-17T03:59:07.072Z,11.68
2022-12-17T04:01:52.893Z,15.80
2022-12-17T04:04:38.410Z,16.13
2022-12-17T04:07:25.695Z,18.40
2022-12-17T04:10:11.495Z,13.13
2022-12-17T04:12:57.000Z,11.85
2022-12-17T04:15:42.519Z,13.05
2022-12-17T04:18:28.405Z,13.63
2022-12-17T04:21:13.976Z,14.80
2022-12-17T04:24:01.377Z,12.70
2022-12-17T04:26:47.017Z,14.43
2022-12-17T04:29:32.685Z,13.68
2022-12-17T04:32:18.335Z,13.82
2022-12-17T04:35:04.179Z,13.68
2022-12-17T04:37:49.952Z,11.52
2022-12-17T04:40:37.295Z,14.75
2022-12-17T04:43:27.256Z,13.43
2022-12-17T04:46:13.330Z,13.75
2022-12-17T04:48:59.162Z,12.77
2022-12-17T04:51:44.710Z,14.75
2022-12-17T04:54:30.634Z,15.30
2022-12-17T04:57:17.464Z,14.68
2022-12-17T05:00:03.084Z,14.80
2022-12-17T05:02:48.963Z,16.40
2022-12-17T05:05:34.969Z,15.27
2022-12-17T05:08:25.838Z,14.63
2022-12-17T05:11:11.371Z,13.93
2022-12-17T05:13:58.691Z,17.02
2022-12-17T05:16:44.303Z,14.82
2022-12-17T05:19:29.933Z,12.88
2022-12-17T05:22:15.455Z,12.25
2022-12-17T05:25:01.152Z,13.32
2022-12-17T05:27:46.817Z,14.27
2022-12-17T05:30:33.686Z,15.63
2022-12-17T05:33:20.450Z,11.57
2022-12-17T05:36:06.768Z,14.45
2022-12-17T05:38:52.335Z,14.27
2022-12-17T05:41:38.006Z,17.23
2022-12-17T05:44:23.877Z,16.05
2022-12-17T05:47:13.636Z,17.75
2022-12-17T05:49:59.201Z,16.23
2022-12-17T05:52:44.916Z,13.95
2022-12-17T05:55:30.858Z,14.43
2022-12-17T05:58:22.535Z,15.20
2022-12-17T06:01:08.571Z,16.40
2022-12-17T06:03:55.482Z,13.32
2022-12-17T06:06:41.376Z,12.38
2022-12-17T06:09:26.817Z,11.35
2022-12-17T06:12:12.489Z,13.18
2022-12-17T06:14:58.490Z,16.80
2022-12-17T06:17:44.076Z,15.70
2022-12-17T06:20:31.024Z,13.63
2022-12-17T06:23:20.550Z,17.75
2022-12-17T06:26:06.647Z,13.57
2022-12-17T06:28:52.123Z,16.23
2022-12-17T06:31:37.835Z,17.48
2022-12-17T06:34:28.943Z,13.93
2022-12-17T06:37:15.749Z,12.90
2022-12-17T06:40:01.359Z,14.88
2022-12-17T06:42:47.107Z,12.68
2022-12-17T06:45:32.753Z,17.02
2022-12-17T06:48:22.046Z,15.63
2022-12-17T06:51:07.710Z,14.55
2022-12-17T06:53:54.896Z,13.65
2022-12-17T06:56:40.591Z,13.50
2022-12-17T06:59:26.335Z,14.63
2022-12-17T07:02:12.100Z,15.77
2022-12-17T07:04:57.991Z,14.30
2022-12-17T07:07:44.875Z,17.73
2022-12-17T07:10:31.915Z,14.93
2022-12-17T07:13:24.799Z,15.88
2022-12-17T07:16:11.391Z,14.25
2022-12-17T07:18:57.251Z,14.38
2022-12-17T07:21:43.366Z,17.27
2022-12-17T07:24:29.575Z,17.13
2022-12-17T07:27:16.261Z,13.68
2022-12-17T07:30:01.952Z,15.70
2022-12-17T07:32:47.033Z,14.23
2022-12-17T07:35:32.806Z,16.27
2022-12-17T07:38:19.363Z,14.70
2022-12-17T07:41:05.064Z,13.13
2022-12-17T07:43:53.443Z,17.35
2022-12-17T07:46:39.941Z,16.30
2022-12-17T07:49:26.196Z,17.42
2022-12-17T07:52:11.168Z,14.48
2022-12-17T07:54:56.946Z,15.35
2022-12-17T07:57:43.053Z,13.35
2022-12-17T08:00:32.341Z,13.35
2022-12-17T08:03:19.595Z,17.67
2022-12-17T08:06:05.431Z,14.02
2022-12-17T08:08:50.977Z,13.48
2022-12-17T08:11:36.708Z,16.85
2022-12-17T08:14:22.183Z,13.80
2022-12-17T08:17:09.169Z,12.55
2022-12-17T08:19:56.241Z,16.77
2022-12-17T08:22:42.114Z,20.45
2022-12-17T08:25:28.438Z,17.83
2022-12-17T08:28:48.559Z,17.98
2022-12-17T08:31:21.854Z,19.98
2022-12-17T08:34:08.918Z,24.58
2022-12-17T08:36:54.966Z,22.35
2022-12-17T08:39:40.534Z,24.25
2022-12-17T08:42:26.051Z,24.25
2022-12-17T08:45:11.678Z,25.15
2022-12-17T08:48:02.160Z,19.83
2022-12-17T08:50:50.979Z,23.23
2022-12-17T08:53:36.989Z,17.10
2022-12-17T08:56:23.622Z,18.10
2022-12-17T08:59:08.971Z,20.10
2022-12-17T09:01:54.711Z,23.20
2022-12-17T09:04:40.604Z,26.05
2022-12-17T09:07:27.550Z,17.67
2022-12-17T09:10:13.436Z,18.25
2022-12-17T09:13:04.938Z,25.60
2022-12-17T09:15:51.047Z,14.15
2022-12-17T09:18:38.471Z,14.40
2022-12-17T09:21:25.645Z,12.05
2022-12-17T09:24:13.048Z,11.55
2022-12-17T09:27:06.888Z,18.58
2022-12-17T09:29:52.454Z,14.73
2022-12-17T09:32:38.420Z,15.50
2022-12-17T09:35:23.608Z,16.05
2022-12-17T09:38:11.028Z,16.15
2022-12-17T09:41:00.088Z,14.57
2022-12-17T09:43:57.217Z,13.47
2022-12-17T09:46:55.521Z,15.63
2022-12-17T09:49:46.125Z,16.63
2022-12-17T09:52:42.858Z,12.73
2022-12-17T09:55:38.383Z,10.97
2022-12-17T09:58:37.455Z,9.63
2022-12-17T10:01:25.103Z,11.43
2022-12-17T10:04:11.063Z,16.60
2022-12-17T10:06:56.768Z,12.07
2022-12-17T10:09:47.194Z,12.83
2022-12-17T10:12:35.775Z,15.63
2022-12-17T10:15:25.218Z,11.60
2022-12-17T10:18:11.300Z,11.10
2022-12-17T10:21:02.529Z,13.07
2022-12-17T10:23:51.201Z,12.20
2022-12-17T10:26:40.479Z,12.97
2022-12-17T10:29:31.552Z,12.67
2022-12-17T10:32:37.446Z,12.57
2022-12-17T10:35:27.849Z,13.93
2022-12-17T10:38:13.359Z,13.17
2022-12-17T10:40:58.846Z,15.47
2022-12-17T10:43:47.856Z,24.13
2022-12-17T10:46:44.838Z,21.47
2022-12-17T10:49:35.000Z,23.70
2022-12-17T10:52:25.634Z,24.90
2022-12-17T10:55:19.173Z,33.53
2022-12-17T10:58:07.966Z,45.38
2022-12-17T11:00:57.677Z,42.25
2022-12-17T11:03:51.015Z,41.17
2022-12-17T11:06:46.036Z,38.78
2022-12-17T11:09:48.252Z,40.83
2022-12-17T11:12:38.508Z,39.38
2022-12-17T11:15:37.590Z,33.95
2022-12-17T11:18:29.375Z,30.50
2022-12-17T11:21:24.953Z,23.23
2022-12-17T11:24:19.120Z,22.60
2022-12-17T11:27:13.077Z,19.40
2022-12-17T11:29:58.629Z,18.13
2022-12-17T11:33:09.130Z,18.60
2022-12-17T11:36:06.279Z,18.83
2022-12-17T11:39:12.123Z,19.37
2022-12-17T11:42:16.419Z,18.90
2022-12-17T11:45:18.175Z,21.17
2022-12-17T11:48:12.972Z,18.67
2022-12-17T11:51:08.661Z,16.17
2022-12-17T11:54:09.886Z,19.43
2022-12-17T11:57:04.130Z,18.33
2022-12-17T12:00:00.784Z,20.33
2022-12-17T12:03:07.534Z,18.90
2022-12-17T12:06:06.918Z,18.03
2022-12-17T12:09:03.631Z,17.60
2022-12-17T12:11:56.948Z,18.43
2022-12-17T12:14:57.342Z,19.80
2022-12-17T12:17:56.487Z,19.43
2022-12-17T12:21:06.526Z,18.77
2022-12-17T12:24:10.350Z,18.10
2022-12-17T12:27:10.581Z,18.87
2022-12-17T12:30:15.365Z,19.45
2022-12-17T12:33:16.001Z,18.53
2022-12-17T12:36:02.156Z,17.50
2022-12-17T12:38:55.510Z,16.63
2022-12-17T12:41:59.457Z,12.13
2022-12-17T12:44:57.103Z,14.00
2022-12-17T12:47:56.600Z,14.57
2022-12-17T12:50:54.282Z,11.33
2022-12-17T12:53:40.302Z,15.43
2022-12-17T12:56:45.560Z,19.40
2022-12-17T12:59:43.629Z,17.85
2022-12-17T13:02:45.567Z,15.90
2022-12-17T13:05:34.486Z,13.43
2022-12-17T13:08:20.904Z,16.27
2022-12-17T13:10:50.815Z,9.97
2022-12-17T13:13:35.768Z,11.37
2022-12-17T13:16:25.471Z,12.35
2022-12-17T13:19:06.229Z,11.00
2022-12-17T13:21:34.350Z,11.40
2022-12-17T13:24:12.722Z,14.00
2022-12-17T13:26:46.114Z,11.07
2022-12-17T13:29:28.094Z,10.98
2022-12-17T13:32:12.789Z,14.23
2022-12-17T13:35:03.251Z,11.67
2022-12-17T13:37:46.815Z,11.23
2022-12-17T13:40:32.218Z,12.50
2022-12-17T13:43:00.543Z,9.88
2022-12-17T13:45:29.672Z,11.63
2022-12-17T13:48:00.142Z,15.15
2022-12-17T13:50:34.399Z,13.10
2022-12-17T13:53:12.091Z,13.35
2022-12-17T13:55:40.362Z,18.85
2022-12-17T13:58:24.151Z,19.17
2022-12-17T14:00:52.785Z,17.98
2022-12-17T14:03:43.183Z,24.40
2022-12-17T14:06:13.747Z,59.35
2022-12-17T14:08:42.813Z,59.20
2022-12-17T14:11:31.210Z,56.65
2022-12-17T14:13:59.710Z,54.80
2022-12-17T14:16:28.037Z,42.47
2022-12-17T14:18:58.983Z,32.30
2022-12-17T14:21:29.767Z,24.42
2022-12-17T14:23:59.059Z,24.27
2022-12-17T14:26:27.215Z,23.10
2022-12-17T14:28:56.833Z,15.85
2022-12-17T14:31:29.393Z,16.73
2022-12-17T14:34:08.301Z,15.48
2022-12-17T14:36:41.163Z,10.95
2022-12-17T14:39:21.214Z,10.07
2022-12-17T14:42:06.498Z,13.18
2022-12-17T14:44:35.527Z,10.25
2022-12-17T14:47:19.594Z,8.27
2022-12-17T14:49:58.161Z,10.50
2022-12-17T14:52:43.890Z,9.98
2022-12-17T14:55:32.247Z,13.25
2022-12-17T14:58:19.702Z,12.55
2022-12-17T15:00:56.837Z,15.40
2022-12-17T15:03:29.900Z,13.80
2022-12-17T15:06:03.099Z,19.67
2022-12-17T15:08:37.777Z,21.52
2022-12-17T15:11:06.506Z,18.77
2022-12-17T15:13:34.848Z,18.45
2022-12-17T15:16:03.602Z,17.42
2022-12-17T15:18:31.702Z,21.23
2022-12-17T15:20:59.904Z,27.42
2022-12-17T15:23:28.032Z,33.75
2022-12-17T15:25:57.420Z,36.55
2022-12-17T15:28:25.732Z,25.40
2022-12-17T15:30:53.985Z,25.58
2022-12-17T15:33:22.275Z,26.88
2022-12-17T15:35:50.308Z,23.75
2022-12-17T15:38:18.347Z,25.15
2022-12-17T15:40:46.393Z,15.93
2022-12-17T15:43:15.863Z,17.33
2022-12-17T15:45:46.512Z,18.23
2022-12-17T15:48:18.448Z,16.88
2022-12-17T15:50:47.746Z,19.58
2022-12-17T15:53:16.304Z,25.15
2022-12-17T15:55:44.635Z,29.15
2022-12-17T15:58:13.849Z,29.42
2022-12-17T16:00:43.282Z,27.65
2022-12-17T16:03:11.397Z,18.70
2022-12-17T16:05:39.528Z,19.40
2022-12-17T16:08:07.730Z,16.17
2022-12-17T16:10:35.828Z,13.77
2022-12-17T16:13:03.919Z,13.30
2022-12-17T16:15:32.741Z,13.32
2022-12-17T16:18:02.176Z,15.50
2022-12-17T16:20:30.343Z,14.35
2022-12-17T16:22:58.490Z,17.02
2022-12-17T16:25:26.572Z,14.32
2022-12-17T16:27:57.425Z,16.55
2022-12-17T16:30:25.437Z,28.90
2022-12-17T16:32:53.434Z,24.55
2022-12-17T16:35:23.899Z,23.10
2022-12-17T16:37:52.064Z,17.35
2022-12-17T16:40:20.070Z,18.90
2022-12-17T16:42:48.384Z,14.63
2022-12-17T16:45:16.967Z,12.23
2022-12-17T16:47:45.139Z,14.38
2022-12-17T16:50:13.159Z,12.65
2022-12-17T16:52:42.927Z,14.88
2022-12-17T16:55:11.244Z,12.95
2022-12-17T16:57:39.327Z,14.55
2022-12-17T17:00:09.600Z,14.02
2022-12-17T17:02:37.926Z,16.10
2022-12-17T17:05:07.163Z,14.60
2022-12-17T17:07:35.185Z,15.65
2022-12-17T17:10:05.677Z,18.35
2022-12-17T17:12:34.117Z,17.45
2022-12-17T17:15:02.462Z,21.73
2022-12-17T17:17:55.084Z,23.25
2022-12-17T17:20:18.721Z,17.73
2022-12-17T17:22:46.748Z,20.42
2022-12-17T17:25:16.311Z,27.90
2022-12-17T17:27:44.558Z,19.38
2022-12-17T17:30:13.962Z,13.82
2022-12-17T17:32:42.445Z,12.07
2022-12-17T17:35:10.927Z,11.32
2022-12-17T17:37:39.564Z,10.02
2022-12-17T17:40:09.662Z,6.57
2022-12-17T17:42:39.023Z,8.23
2022-12-17T17:45:08.931Z,7.63
2022-12-17T17:47:37.296Z,9.10
2022-12-17T17:50:06.816Z,8.13
2022-12-17T17:52:34.813Z,8.30
2022-12-17T17:55:02.860Z,6.25
2022-12-17T17:57:30.874Z,10.27
2022-12-17T18:00:00.230Z,7.93
2022-12-17T18:02:28.630Z,8.90
2022-12-17T18:04:56.800Z,13.43
2022-12-17T18:07:26.357Z,15.43
2022-12-17T18:09:55.430Z,20.17
2022-12-17T18:12:42.076Z,21.70
2022-12-17T18:15:15.437Z,35.17
2022-12-17T18:17:45.267Z,31.52
2022-12-17T18:20:14.372Z,19.30
2022-12-17T18:22:43.217Z,19.33
2022-12-17T18:25:11.366Z,16.08
2022-12-17T18:27:39.568Z,16.90
2022-12-17T18:30:09.103Z,13.65
2022-12-17T18:32:38.644Z,11.75
2022-12-17T18:35:08.149Z,8.43
2022-12-17T18:37:36.512Z,9.57
2022-12-17T18:40:06.204Z,7.97
2022-12-17T18:42:52.683Z,7.38
2022-12-17T18:45:20.721Z,10.00
2022-12-17T18:47:52.184Z,8.13
2022-12-17T18:50:20.357Z,10.20
2022-12-17T18:52:48.413Z,11.43
2022-12-17T18:55:16.881Z,10.50
2022-12-17T18:57:44.915Z,14.63
2022-12-17T19:00:15.671Z,11.32
2022-12-17T19:02:44.321Z,10.43
2022-12-17T19:05:13.929Z,9.30
2022-12-17T19:07:42.268Z,10.68
2022-12-17T19:10:11.627Z,10.85
2022-12-17T19:12:39.692Z,8.38
2022-12-17T19:15:09.594Z,10.45
2022-12-17T19:17:37.975Z,9.93
2022-12-17T19:20:07.285Z,9.20
2022-12-17T19:22:37.018Z,11.50
2022-12-17T19:25:05.777Z,10.90
2022-12-17T19:27:33.863Z,12.25
2022-12-17T19:30:01.889Z,10.82
2022-12-17T19:32:29.900Z,18.27
2022-12-17T19:34:57.894Z,14.02
2022-12-17T19:37:26.298Z,12.68
2022-12-17T19:39:56.345Z,9.77
2022-12-17T19:42:34.954Z,12.82
2022-12-17T19:45:05.564Z,8.95
2022-12-17T19:47:33.606Z,10.65
2022-12-17T19:50:02.460Z,14.50
2022-12-17T19:52:30.500Z,10.20
2022-12-17T19:54:59.878Z,11.25
2022-12-17T19:57:30.431Z,10.15
2022-12-17T19:59:58.473Z,10.65
2022-12-17T20:02:31.142Z,12.05
2022-12-17T20:05:01.245Z,14.90
2022-12-17T20:07:29.276Z,16.02
2022-12-17T20:09:58.695Z,9.95
2022-12-17T20:12:26.850Z,12.90
2022-12-17T20:14:54.873Z,8.93
2022-12-17T20:17:24.651Z,10.98
2022-12-17T20:19:54.906Z,8.85
2022-12-17T20:22:23.540Z,9.52
2022-12-17T20:24:53.878Z,10.23
2022-12-17T20:27:23.363Z,8.93
2022-12-17T20:29:51.371Z,8.95
2022-12-17T20:32:21.211Z,9.52
2022-12-17T20:34:49.381Z,14.50
2022-12-17T20:37:17.755Z,10.70
2022-12-17T20:39:45.871Z,12.60
2022-12-17T20:42:13.967Z,12.52
2022-12-17T20:44:46.372Z,16.75
2022-12-17T20:47:16.750Z,12.88
2022-12-17T20:49:44.866Z,16.50
2022-12-17T20:52:13.227Z,12.10
2022-12-17T20:54:41.341Z,16.45
2022-12-17T20:57:09.479Z,14.80
2022-12-17T20:59:37.607Z,13.38
2022-12-17T21:02:07.370Z,11.45
2022-12-17T21:04:35.888Z,11.55
2022-12-17T21:07:04.006Z,8.30
2022-12-17T21:09:32.190Z,8.85
2022-12-17T21:12:00.253Z,7.80
2022-12-17T21:14:35.500Z,10.10
2022-12-17T21:17:04.877Z,8.50
2022-12-17T21:19:34.880Z,8.38
2022-12-17T21:22:02.977Z,9.82
2022-12-17T21:24:30.994Z,8.05
2022-12-17T21:26:59.398Z,8.23
2022-12-17T21:29:30.591Z,11.98
2022-12-17T21:31:58.621Z,10.30
2022-12-17T21:34:29.193Z,10.32
2022-12-17T21:36:58.750Z,11.85
2022-12-17T21:39:27.146Z,10.05
2022-12-17T21:42:12.749Z,12.35
2022-12-17T21:44:40.772Z,12.82
2022-12-17T21:47:09.087Z,11.52
2022-12-17T21:49:37.503Z,9.52
2022-12-17T21:52:07.446Z,11.20
2022-12-17T21:54:39.424Z,9.77
2022-12-17T21:57:08.112Z,7.63
2022-12-17T21:59:36.181Z,13.27
2022-12-17T22:02:04.294Z,10.20
2022-12-17T22:04:32.575Z,15.52
2022-12-17T22:07:07.925Z,10.75
2022-12-17T22:10:10.181Z,10.25
2022-12-17T22:12:53.858Z,11.68
2022-12-17T22:15:21.912Z,10.27
2022-12-17T22:17:54.969Z,11.68
2022-12-17T22:20:24.680Z,11.98
2022-12-17T22:22:53.074Z,14.27
2022-12-17T22:25:22.656Z,11.57
2022-12-17T22:27:50.798Z,8.93
2022-12-17T22:30:36.702Z,8.50
2022-12-17T22:33:12.087Z,8.48
2022-12-17T22:38:28.362Z,9.95
2022-12-17T22:40:44.311Z,10.25
2022-12-17T22:44:37.198Z,12.18
2022-12-17T22:44:54.693Z,17.95
2022-12-17T22:47:24.050Z,15.35
2022-12-17T22:49:52.474Z,14.85
2022-12-17T22:52:21.414Z,11.00
2022-12-17T22:54:49.866Z,11.10
2022-12-17T22:57:36.531Z,11.25
2022-12-17T23:00:14.104Z,8.10
2022-12-17T23:02:42.331Z,11.30
2022-12-17T23:05:10.801Z,10.63
2022-12-17T23:07:38.849Z,7.90
2022-12-17T23:10:07.932Z,9.43
2022-12-17T23:12:53.101Z,9.73
2022-12-17T23:15:29.341Z,8.05
2022-12-17T23:18:01.204Z,6.28
2022-12-17T23:20:33.226Z,6.50
2022-12-17T23:23:02.168Z,8.48
2022-12-17T23:25:30.630Z,8.63
2022-12-17T23:28:00.278Z,5.47
2022-12-17T23:30:28.510Z,7.43
2022-12-17T23:32:56.563Z,5.82
2022-12-17T23:35:25.130Z,6.20
2022-12-17T23:37:53.521Z,8.80
2022-12-17T23:40:22.387Z,6.53
2022-12-17T23:42:50.625Z,7.40
2022-12-17T23:45:20.561Z,6.55
2022-12-17T23:47:48.579Z,5.82
2022-12-17T23:50:18.159Z,3.17
2022-12-17T23:52:46.174Z,3.25
2022-12-17T23:55:14.232Z,6.18
2022-12-17T23:57:42.298Z,8.63
